Time;durP1;ratioP1;P1;durP2;ratioP2;P2;SDS_P1;SDS_P2;PMS_P1;PMS_P2;Temp;Humidity;BMP_temperature;BMP_pressure;BME280_temperature;BME280_humidity;BME280_pressure;Samples;Min_cycle;Max_cycle;Signal;HPM_P1;HPM_P2
2022/11/29 00:01:18;;;;;;;25.85;6.78;;;8.10;99.90;;;;;;5013723;28;20048;-89
2022/11/29 00:03:48;;;;;;;21.95;6.95;;;8.10;99.90;;;;;;5028284;28;20045;-88
2022/11/29 00:06:19;;;;;;;32.22;7.82;;;8.10;99.90;;;;;;5015111;28;20037;-88
2022/11/29 00:08:56;;;;;;;20.05;5.70;;;8.10;99.90;;;;;;5027329;28;20037;-88
2022/11/29 00:14:16;;;;;;;19.98;6.00;;;8.10;99.90;;;;;;5025700;28;20474;-88
2022/11/29 00:16:42;;;;;;;14.13;6.03;;;8.10;99.90;;;;;;5026892;28;20056;-88
2022/11/29 00:19:11;;;;;;;11.85;5.28;;;8.00;99.90;;;;;;5021935;28;20045;-88
2022/11/29 00:21:36;;;;;;;20.35;6.57;;;8.00;99.90;;;;;;5036076;28;20060;-88
2022/11/29 00:24:02;;;;;;;15.90;5.27;;;8.00;99.90;;;;;;5035549;28;20037;-88
2022/11/29 00:26:28;;;;;;;18.63;5.68;;;7.90;99.90;;;;;;5017441;28;20550;-88
2022/11/29 00:28:54;;;;;;;16.50;5.35;;;7.90;99.90;;;;;;5019163;28;20033;-88
2022/11/29 00:31:22;;;;;;;17.75;5.95;;;7.90;99.90;;;;;;5014001;28;20040;-88
2022/11/29 00:33:51;;;;;;;12.18;5.10;;;7.90;99.90;;;;;;5023726;28;20052;-88
2022/11/29 00:36:18;;;;;;;16.48;6.35;;;7.90;99.90;;;;;;5024647;28;20048;-88
2022/11/29 00:38:47;;;;;;;27.17;5.88;;;7.80;99.90;;;;;;5007452;28;20042;-89
2022/11/29 00:41:13;;;;;;;23.48;5.57;;;7.70;99.90;;;;;;5027210;28;20057;-88
2022/11/29 00:43:41;;;;;;;19.48;6.45;;;7.70;99.90;;;;;;5028464;28;20049;-89
2022/11/29 00:46:11;;;;;;;18.85;6.20;;;7.70;99.90;;;;;;5029055;28;20050;-88
2022/11/29 00:48:37;;;;;;;16.05;5.82;;;7.70;99.90;;;;;;5022812;28;20034;-88
2022/11/29 00:51:04;;;;;;;14.43;6.25;;;7.70;99.90;;;;;;5030818;28;20493;-88
2022/11/29 00:53:31;;;;;;;14.63;5.72;;;7.70;99.90;;;;;;5027862;28;20047;-88
2022/11/29 00:55:56;;;;;;;17.52;5.47;;;7.60;99.90;;;;;;5030097;28;20038;-88
2022/11/29 00:58:22;;;;;;;17.77;5.80;;;7.60;99.90;;;;;;5031243;28;20061;-88
2022/11/29 01:00:52;;;;;;;23.15;5.75;;;7.60;99.90;;;;;;5017729;28;20302;-88
2022/11/29 01:03:18;;;;;;;14.98;5.82;;;7.60;99.90;;;;;;5014062;28;20096;-89
2022/11/29 01:05:44;;;;;;;17.97;6.17;;;7.60;99.90;;;;;;5033461;28;20528;-88
2022/11/29 01:08:10;;;;;;;12.68;5.35;;;7.60;99.90;;;;;;5045647;28;20030;-88
2022/11/29 01:10:44;;;;;;;12.60;5.57;;;7.60;99.90;;;;;;5011682;28;20108;-88
2022/11/29 01:13:13;;;;;;;10.82;5.22;;;7.60;99.90;;;;;;5030814;28;20046;-88
2022/11/29 01:15:41;;;;;;;18.83;5.57;;;7.60;99.90;;;;;;5018726;28;20041;-88
2022/11/29 01:18:14;;;;;;;14.20;5.90;;;7.60;99.90;;;;;;5012240;28;20057;-88
2022/11/29 01:20:40;;;;;;;9.65;5.05;;;7.60;99.90;;;;;;5027635;28;20049;-88
2022/11/29 01:23:06;;;;;;;9.43;5.10;;;7.60;99.90;;;;;;5033052;28;20099;-89
2022/11/29 01:25:31;;;;;;;9.70;4.80;;;7.60;99.90;;;;;;5012524;28;20064;-88
2022/11/29 01:27:57;;;;;;;10.47;5.20;;;7.50;99.90;;;;;;5029441;28;20104;-89
2022/11/29 01:30:22;;;;;;;10.47;4.87;;;7.60;99.90;;;;;;5066219;28;20061;-89
2022/11/29 01:32:48;;;;;;;11.23;5.17;;;7.60;99.90;;;;;;5055363;28;20545;-87
2022/11/29 01:35:14;;;;;;;14.40;6.03;;;7.40;99.90;;;;;;5038273;28;20044;-89
2022/11/29 01:37:46;;;;;;;14.85;6.18;;;7.50;99.90;;;;;;5023463;28;20044;-89
2022/11/29 01:40:12;;;;;;;13.82;5.43;;;7.50;99.90;;;;;;5061942;28;20024;-89
2022/11/29 01:42:38;;;;;;;12.88;5.82;;;7.50;99.90;;;;;;5046559;28;20124;-89
2022/11/29 01:45:21;;;;;;;10.50;5.20;;;7.50;99.90;;;;;;5034309;28;20073;-89
2022/11/29 01:47:48;;;;;;;10.77;4.68;;;7.40;99.90;;;;;;5020591;28;20168;-88
2022/11/29 01:50:14;;;;;;;14.63;5.10;;;7.40;99.90;;;;;;5022673;28;20038;-89
2022/11/29 01:52:43;;;;;;;11.95;4.78;;;7.40;99.90;;;;;;5037794;28;20040;-88
2022/11/29 01:55:12;;;;;;;9.57;5.10;;;7.40;99.90;;;;;;5038488;28;20045;-89
2022/11/29 01:57:40;;;;;;;12.93;4.70;;;7.40;99.90;;;;;;5017585;28;20041;-88
2022/11/29 02:00:11;;;;;;;11.25;4.75;;;7.40;99.90;;;;;;5024554;28;20065;-91
2022/11/29 02:02:55;;;;;;;7.85;3.97;;;7.40;99.90;;;;;;5028679;28;20120;-89
2022/11/29 02:05:25;;;;;;;9.27;4.10;;;7.40;99.90;;;;;;5029202;28;20033;-88
2022/11/29 02:07:53;;;;;;;10.77;4.25;;;7.30;99.90;;;;;;5035340;28;20066;-88
2022/11/29 02:10:32;;;;;;;11.13;3.83;;;7.30;99.90;;;;;;5024427;28;20049;-88
2022/11/29 02:13:13;;;;;;;12.35;4.80;;;7.30;99.90;;;;;;5010737;28;20038;-88
2022/11/29 02:16:06;;;;;;;10.68;4.70;;;7.30;99.90;;;;;;5005136;28;20442;-88
2022/11/29 02:18:50;;;;;;;9.90;4.20;;;7.30;99.90;;;;;;5017672;28;20041;-88
2022/11/29 02:21:33;;;;;;;11.27;4.43;;;7.30;99.90;;;;;;5023501;28;20433;-87
2022/11/29 02:24:05;;;;;;;12.57;4.60;;;7.20;99.90;;;;;;5012777;28;20037;-88
2022/11/29 02:26:50;;;;;;;16.73;4.72;;;7.20;99.90;;;;;;5027012;28;20038;-88
2022/11/29 02:29:40;;;;;;;15.93;4.68;;;7.20;99.90;;;;;;5019165;28;20649;-88
2022/11/29 02:32:34;;;;;;;13.32;4.55;;;7.20;99.90;;;;;;5013314;28;20041;-88
2022/11/29 02:35:55;;;;;;;14.50;4.35;;;7.10;99.90;;;;;;5017535;28;20041;-88
2022/11/29 02:38:48;;;;;;;12.95;3.50;;;7.20;99.90;;;;;;5022985;28;20049;-88
2022/11/29 02:41:48;;;;;;;14.00;4.00;;;7.10;99.90;;;;;;5035457;28;20037;-88
2022/11/29 02:44:32;;;;;;;10.85;4.22;;;7.10;99.90;;;;;;5026325;28;20485;-89
2022/11/29 02:47:26;;;;;;;10.75;4.47;;;7.00;99.90;;;;;;5024403;28;20549;-88
2022/11/29 02:50:16;;;;;;;12.20;4.47;;;7.10;99.90;;;;;;5025259;28;20033;-87
2022/11/29 02:52:47;;;;;;;10.45;4.50;;;7.10;99.90;;;;;;5023988;28;20178;-88
2022/11/29 02:55:21;;;;;;;8.90;3.80;;;7.00;99.90;;;;;;5025391;28;20073;-88
2022/11/29 02:58:02;;;;;;;11.88;4.20;;;7.00;99.90;;;;;;5041703;28;20486;-89
2022/11/29 03:00:28;;;;;;;13.05;4.65;;;7.00;99.90;;;;;;5031430;28;20052;-90
2022/11/29 03:03:19;;;;;;;10.00;3.97;;;7.00;99.90;;;;;;5035615;28;20042;-88
2022/11/29 03:06:33;;;;;;;9.10;3.97;;;7.00;99.90;;;;;;5025993;28;20120;-88
2022/11/29 03:09:20;;;;;;;11.30;3.85;;;7.00;99.90;;;;;;5002097;28;20045;-89
2022/11/29 03:12:04;;;;;;;10.93;3.97;;;7.00;99.90;;;;;;5011562;28;20038;-88
2022/11/29 03:14:40;;;;;;;10.45;3.70;;;7.00;99.90;;;;;;5006409;28;20053;-87
2022/11/29 03:17:16;;;;;;;11.82;3.83;;;7.00;99.90;;;;;;5030131;28;20468;-88
2022/11/29 03:20:00;;;;;;;9.30;4.43;;;7.00;99.90;;;;;;4999597;28;20042;-88
2022/11/29 03:22:41;;;;;;;12.57;4.10;;;6.90;99.90;;;;;;5034339;28;20055;-88
2022/11/29 03:25:12;;;;;;;11.45;3.90;;;6.90;99.90;;;;;;5026386;28;20056;-87
2022/11/29 03:27:46;;;;;;;10.90;4.10;;;6.90;99.90;;;;;;5017458;28;20045;-89
2022/11/29 03:30:17;;;;;;;8.85;3.63;;;6.90;99.90;;;;;;5025130;28;20037;-88
2022/11/29 03:32:46;;;;;;;10.05;3.83;;;6.90;99.90;;;;;;5020456;28;20033;-89
2022/11/29 03:35:32;;;;;;;15.02;4.60;;;6.80;99.90;;;;;;5026480;28;20120;-88
2022/11/29 03:38:43;;;;;;;9.25;3.78;;;6.80;99.90;;;;;;5023931;28;20046;-88
2022/11/29 03:41:12;;;;;;;8.02;4.22;;;6.80;99.90;;;;;;5021972;28;20049;-88
2022/11/29 03:44:01;;;;;;;15.20;4.47;;;6.80;99.90;;;;;;5035194;28;20073;-87
2022/11/29 03:46:56;;;;;;;14.40;3.65;;;6.80;99.90;;;;;;5031439;28;20045;-87
2022/11/29 03:49:28;;;;;;;14.93;3.63;;;6.70;99.90;;;;;;5013755;28;20053;-88
2022/11/29 03:52:15;;;;;;;16.05;4.15;;;6.70;99.90;;;;;;5020231;28;20482;-88
2022/11/29 03:54:50;;;;;;;7.03;3.40;;;6.70;99.90;;;;;;5034644;28;20037;-88
2022/11/29 03:57:22;;;;;;;13.82;3.95;;;6.70;99.90;;;;;;5016533;28;20454;-88
2022/11/29 04:00:06;;;;;;;14.32;3.88;;;6.70;99.90;;;;;;5030428;28;20041;-88
2022/11/29 04:02:50;;;;;;;9.55;3.72;;;6.70;99.90;;;;;;5012336;28;20033;-87
2022/11/29 04:05:41;;;;;;;18.58;4.15;;;6.70;99.90;;;;;;5022232;28;20042;-88
2022/11/29 04:08:37;;;;;;;19.08;3.83;;;6.60;99.90;;;;;;5025380;28;20041;-88
2022/11/29 04:11:53;;;;;;;8.88;4.13;;;6.60;99.90;;;;;;5031643;28;20089;-88
2022/11/29 04:14:27;;;;;;;7.90;3.10;;;6.60;99.90;;;;;;5028807;28;20041;-88
2022/11/29 04:17:14;;;;;;;18.45;3.47;;;6.60;99.90;;;;;;5002446;28;20044;-88
2022/11/29 04:19:58;;;;;;;9.48;3.75;;;6.60;99.90;;;;;;5020033;28;20049;-88
2022/11/29 04:22:52;;;;;;;12.95;3.38;;;6.60;99.90;;;;;;5037415;28;20041;-88
2022/11/29 04:25:41;;;;;;;13.63;4.47;;;6.50;99.90;;;;;;5012490;28;20666;-88
2022/11/29 04:28:42;;;;;;;14.95;3.42;;;6.60;99.90;;;;;;5007423;28;20473;-88
2022/11/29 04:31:29;;;;;;;10.65;3.30;;;6.50;99.90;;;;;;4970006;28;20046;-88
2022/11/29 04:34:29;;;;;;;11.38;3.75;;;6.50;99.90;;;;;;5027800;28;20095;-88
2022/11/29 04:37:19;;;;;;;11.95;4.03;;;6.50;99.90;;;;;;5027092;28;20116;-88
2022/11/29 04:39:45;;;;;;;15.13;4.13;;;6.50;99.90;;;;;;5013901;28;20046;-88
2022/11/29 04:42:45;;;;;;;13.83;4.67;;;6.50;99.90;;;;;;5030633;28;20572;-88
2022/11/29 04:45:16;;;;;;;15.55;4.07;;;6.50;99.90;;;;;;5032225;28;20101;-88
2022/11/29 04:47:56;;;;;;;10.93;3.85;;;6.50;99.90;;;;;;5023427;28;20685;-89
2022/11/29 04:50:55;;;;;;;14.73;3.85;;;6.50;99.90;;;;;;5025568;28;20037;-89
2022/11/29 04:53:29;;;;;;;;;;;6.50;99.90;;;;;;5032560;28;20035;-88
2022/11/29 04:56:12;;;;;;;7.45;3.10;;;6.50;99.90;;;;;;5008205;28;19917;-88
2022/11/29 04:58:58;;;;;;;12.05;4.50;;;6.50;99.90;;;;;;5045461;28;20041;-89
2022/11/29 05:01:50;;;;;;;12.38;4.10;;;6.50;99.90;;;;;;5010970;28;20037;-89
2022/11/29 05:04:23;;;;;;;12.52;4.05;;;6.50;99.90;;;;;;5025651;28;20513;-88
2022/11/29 05:07:03;;;;;;;14.95;4.75;;;6.50;99.90;;;;;;5011289;28;20053;-89
2022/11/29 05:09:37;;;;;;;13.45;4.72;;;6.50;99.90;;;;;;5013507;28;20041;-89
2022/11/29 05:12:16;;;;;;;12.57;5.03;;;6.50;99.90;;;;;;5047205;28;20037;-88
2022/11/29 05:15:19;;;;;;;13.07;4.55;;;6.50;99.90;;;;;;5035938;28;20037;-88
2022/11/29 05:18:39;;;;;;;13.05;4.28;;;6.50;99.90;;;;;;5029919;28;20034;-88
2022/11/29 05:21:30;;;;;;;14.25;5.00;;;6.50;99.90;;;;;;4969728;28;20074;-88
2022/11/29 05:24:26;;;;;;;10.50;4.60;;;6.50;99.90;;;;;;5025532;28;20052;-89
2022/11/29 05:27:17;;;;;;;17.77;5.07;;;6.50;99.90;;;;;;5027409;28;20113;-89
2022/11/29 05:29:57;;;;;;;9.57;4.43;;;6.50;99.90;;;;;;5014837;28;20045;-88
2022/11/29 05:32:50;;;;;;;11.93;4.45;;;6.50;99.90;;;;;;5027589;28;20036;-89
2022/11/29 05:35:43;;;;;;;11.77;4.75;;;6.50;99.90;;;;;;5007315;28;20033;-89
2022/11/29 05:38:31;;;;;;;13.20;5.50;;;6.50;99.90;;;;;;5027088;28;20045;-89
2022/11/29 05:41:22;;;;;;;17.33;5.53;;;6.50;99.90;;;;;;5023330;28;20052;-88
2022/11/29 05:44:19;;;;;;;20.38;5.13;;;6.50;99.90;;;;;;5025500;28;20050;-90
2022/11/29 05:46:59;;;;;;;11.50;4.32;;;6.40;99.90;;;;;;5007184;28;20033;-89
2022/11/29 05:50:06;;;;;;;24.70;5.28;;;6.40;99.90;;;;;;5030979;28;20033;-88
2022/11/29 05:53:10;;;;;;;17.10;4.70;;;6.30;99.90;;;;;;4934197;29;20055;-89
2022/11/29 05:56:32;;;;;;;9.73;3.58;;;6.40;99.90;;;;;;4918289;28;20505;-89
2022/11/29 05:59:12;;;;;;;20.85;4.75;;;6.30;99.90;;;;;;4921197;29;20042;-89
2022/11/29 06:02:05;;;;;;;15.05;4.88;;;6.30;99.90;;;;;;4918041;29;20050;-89
2022/11/29 06:04:50;;;;;;;14.00;3.90;;;6.30;99.90;;;;;;5001199;28;20144;-89
2022/11/29 06:07:33;;;;;;;16.58;3.70;;;6.20;99.90;;;;;;5019565;28;20041;-89
2022/11/29 06:10:11;;;;;;;18.50;4.53;;;6.20;99.90;;;;;;5012799;28;20026;-89
2022/11/29 06:12:37;;;;;;;9.13;3.92;;;6.20;99.90;;;;;;5030574;28;20120;-89
2022/11/29 06:15:41;;;;;;;7.05;3.83;;;6.20;99.90;;;;;;5027245;28;20041;-90
2022/11/29 06:18:43;;;;;;;13.68;4.47;;;6.20;99.90;;;;;;5035232;28;20098;-89
2022/11/29 06:21:39;;;;;;;11.82;3.75;;;6.10;99.90;;;;;;5019890;28;20041;-89
2022/11/29 06:24:35;;;;;;;14.38;5.28;;;6.10;99.90;;;;;;5028206;28;20524;-90
2022/11/29 06:27:21;;;;;;;11.40;4.10;;;6.10;99.90;;;;;;5026462;28;20030;-89
2022/11/29 06:30:09;;;;;;;17.98;4.65;;;6.10;99.90;;;;;;5009542;28;20135;-89
2022/11/29 06:32:54;;;;;;;19.35;4.22;;;6.10;99.90;;;;;;5012887;28;20115;-89
2022/11/29 06:35:34;;;;;;;15.27;4.57;;;6.10;99.90;;;;;;5024919;28;20452;-88
2022/11/29 06:38:24;;;;;;;10.52;4.78;;;6.10;99.90;;;;;;5024070;28;20410;-88
2022/11/29 06:40:51;;;;;;;10.90;4.43;;;6.10;99.90;;;;;;5020711;28;20046;-89
2022/11/29 06:43:17;;;;;;;18.15;4.97;;;6.00;99.90;;;;;;5015106;28;20595;-88
2022/11/29 06:45:49;;;;;;;9.20;3.90;;;6.00;99.90;;;;;;5012197;28;20049;-88
2022/11/29 06:48:25;;;;;;;13.52;5.13;;;6.00;99.90;;;;;;5009299;28;20037;-89
2022/11/29 06:51:17;;;;;;;8.40;4.00;;;6.00;99.90;;;;;;5011051;28;20060;-88
2022/11/29 06:53:54;;;;;;;10.27;4.75;;;6.00;99.90;;;;;;5030975;28;20253;-89
2022/11/29 06:56:50;;;;;;;17.63;4.30;;;6.00;99.90;;;;;;5016833;28;20052;-88
2022/11/29 06:59:50;;;;;;;10.15;3.85;;;6.00;99.90;;;;;;5024202;28;20042;-88
2022/11/29 07:02:44;;;;;;;10.68;4.25;;;6.00;99.90;;;;;;5029241;28;20048;-88
2022/11/29 07:05:31;;;;;;;14.65;4.18;;;6.10;99.90;;;;;;5004569;28;20045;-88
2022/11/29 07:08:02;;;;;;;12.95;4.57;;;6.00;99.90;;;;;;5013177;28;20550;-89
2022/11/29 07:10:30;;;;;;;13.05;5.20;;;6.00;99.90;;;;;;5026529;28;20068;-88
2022/11/29 07:12:56;;;;;;;11.32;4.53;;;6.10;99.90;;;;;;5018858;28;20446;-88
2022/11/29 07:15:28;;;;;;;9.68;4.35;;;6.10;99.90;;;;;;5026844;28;20513;-88
2022/11/29 07:18:00;;;;;;;11.57;4.47;;;6.10;99.90;;;;;;5024627;28;20526;-89
2022/11/29 07:20:56;;;;;;;12.00;4.50;;;6.10;99.90;;;;;;5013949;28;20494;-88
2022/11/29 07:23:35;;;;;;;12.30;4.63;;;6.20;99.90;;;;;;5032818;28;20043;-88
2022/11/29 07:26:27;;;;;;;11.75;4.03;;;6.20;99.90;;;;;;5010359;28;20586;-89
2022/11/29 07:28:59;;;;;;;12.98;4.85;;;6.20;99.90;;;;;;5045455;28;20494;-89
2022/11/29 07:32:06;;;;;;;12.20;4.72;;;6.20;99.90;;;;;;5027252;28;20445;-88
2022/11/29 07:34:43;;;;;;;13.48;4.97;;;6.20;99.90;;;;;;5001958;28;20038;-88
2022/11/29 07:37:18;;;;;;;11.75;5.00;;;6.30;99.90;;;;;;5035111;28;20537;-89
2022/11/29 07:40:09;;;;;;;14.23;5.07;;;6.30;99.90;;;;;;5019743;28;20121;-89
2022/11/29 07:42:58;;;;;;;11.63;4.25;;;6.30;99.90;;;;;;5029168;28;20042;-88
2022/11/29 07:45:37;;;;;;;9.65;4.53;;;6.30;99.90;;;;;;5038191;28;20051;-89
2022/11/29 07:48:06;;;;;;;10.75;4.88;;;6.40;99.90;;;;;;5030628;28;20052;-88
2022/11/29 07:50:35;;;;;;;11.40;4.53;;;6.40;99.90;;;;;;5035995;28;20068;-88
2022/11/29 07:53:16;;;;;;;8.95;4.63;;;6.40;99.90;;;;;;5028150;28;20045;-91
2022/11/29 07:55:42;;;;;;;13.57;5.55;;;6.40;99.90;;;;;;5010766;28;20072;-88
2022/11/29 07:58:13;;;;;;;9.95;4.50;;;6.50;99.90;;;;;;5035010;28;20148;-91
2022/11/29 08:00:40;;;;;;;13.85;5.43;;;6.50;99.90;;;;;;5044279;28;20444;-89
2022/11/29 08:03:07;;;;;;;8.73;4.22;;;6.60;99.90;;;;;;5018799;28;20044;-88
2022/11/29 08:05:33;;;;;;;14.48;4.53;;;6.60;99.90;;;;;;5026383;28;20613;-89
2022/11/29 08:08:00;;;;;;;14.50;5.30;;;6.60;99.90;;;;;;5015314;28;20076;-89
2022/11/29 08:10:29;;;;;;;9.63;4.72;;;6.60;99.90;;;;;;5023318;28;20045;-89
2022/11/29 08:12:54;;;;;;;10.93;4.88;;;6.60;99.90;;;;;;5024292;28;20034;-88
2022/11/29 08:15:21;;;;;;;12.93;4.10;;;6.60;99.90;;;;;;5016877;28;20034;-88
2022/11/29 08:17:47;;;;;;;11.07;4.63;;;6.70;99.90;;;;;;5032052;28;20053;-89
2022/11/29 08:20:15;;;;;;;16.58;5.72;;;6.60;99.90;;;;;;5016550;28;20045;-89
2022/11/29 08:22:41;;;;;;;12.93;5.22;;;6.70;99.90;;;;;;5016538;28;20048;-89
2022/11/29 08:25:08;;;;;;;16.17;5.32;;;6.70;99.90;;;;;;5011534;28;20606;-88
2022/11/29 08:27:35;;;;;;;14.30;5.90;;;6.80;99.90;;;;;;5023310;28;20060;-89
2022/11/29 08:30:01;;;;;;;20.70;5.80;;;6.80;99.90;;;;;;5016293;28;20044;-88
2022/11/29 08:32:27;;;;;;;17.90;5.03;;;6.80;99.90;;;;;;5036184;28;20041;-89
2022/11/29 08:34:53;;;;;;;13.30;5.40;;;6.90;99.90;;;;;;5016047;28;20526;-89
2022/11/29 08:37:18;;;;;;;10.17;4.87;;;6.90;99.90;;;;;;5033493;28;20066;-89
2022/11/29 08:39:47;;;;;;;14.30;4.80;;;7.00;99.90;;;;;;5017044;28;20041;-89
2022/11/29 08:42:13;;;;;;;13.05;4.50;;;7.00;99.90;;;;;;5033293;28;20034;-88
2022/11/29 08:44:39;;;;;;;12.07;5.30;;;7.00;99.90;;;;;;5017130;28;20041;-88
2022/11/29 08:50:02;;;;;;;10.80;3.83;;;7.00;99.90;;;;;;5027063;28;20046;-89
2022/11/29 08:55:26;;;;;;;12.05;4.63;;;7.10;99.90;;;;;;5023243;28;20544;-89
2022/11/29 08:57:54;;;;;;;15.02;5.70;;;7.10;99.90;;;;;;5015746;28;20594;-89
2022/11/29 09:00:20;;;;;;;10.23;4.35;;;7.10;99.90;;;;;;5016217;28;20048;-89
2022/11/29 09:02:48;;;;;;;10.13;4.03;;;7.20;99.90;;;;;;5015914;28;20070;-89
2022/11/29 09:05:17;;;;;;;13.83;4.40;;;7.20;99.90;;;;;;5016065;28;20090;-89
2022/11/29 09:07:43;;;;;;;14.75;4.40;;;7.10;99.90;;;;;;5033079;28;20041;-88
2022/11/29 09:10:10;;;;;;;11.40;3.63;;;7.30;99.90;;;;;;5013839;28;20612;-89
2022/11/29 09:12:37;;;;;;;14.00;4.13;;;7.30;99.90;;;;;;5029099;28;20049;-88
2022/11/29 09:15:05;;;;;;;9.60;3.33;;;7.40;99.90;;;;;;5012523;28;20080;-88
2022/11/29 09:17:34;;;;;;;11.95;4.20;;;7.40;99.90;;;;;;5010550;28;20154;-88
2022/11/29 09:20:04;;;;;;;15.82;4.38;;;7.40;99.90;;;;;;5023567;28;20037;-88
2022/11/29 09:22:30;;;;;;;10.18;3.33;;;7.50;99.90;;;;;;5012400;28;20106;-88
2022/11/29 09:24:59;;;;;;;12.80;3.58;;;7.50;99.90;;;;;;5031660;28;20065;-88
2022/11/29 09:27:24;;;;;;;9.98;3.67;;;7.50;99.90;;;;;;5014194;28;20440;-89
2022/11/29 09:29:50;;;;;;;10.97;3.60;;;7.50;99.90;;;;;;5011794;28;20033;-89
2022/11/29 09:32:16;;;;;;;12.83;4.20;;;7.50;99.90;;;;;;5013505;28;20025;-89
2022/11/29 09:34:42;;;;;;;9.57;3.10;;;7.60;99.90;;;;;;5020765;28;20286;-88
2022/11/29 09:37:07;;;;;;;12.77;3.30;;;7.60;99.90;;;;;;5014524;28;20049;-88
2022/11/29 09:39:33;;;;;;;8.93;3.40;;;7.70;99.90;;;;;;4997789;28;20054;-89
2022/11/29 09:42:33;;;;;;;16.42;3.40;;;7.70;99.90;;;;;;5001726;28;20279;-89
2022/11/29 09:45:02;;;;;;;10.07;3.70;;;7.70;99.90;;;;;;5031252;28;20041;-89
2022/11/29 09:47:46;;;;;;;21.17;4.22;;;7.70;99.90;;;;;;5006533;28;20112;-89
2022/11/29 09:50:15;;;;;;;10.90;3.03;;;7.80;99.90;;;;;;5015770;28;20673;-88
2022/11/29 09:53:15;;;;;;;11.93;3.08;;;7.80;99.90;;;;;;5021376;28;20088;-89
2022/11/29 09:55:41;;;;;;;12.70;3.42;;;7.90;99.90;;;;;;5013428;28;20045;-89
2022/11/29 09:58:16;;;;;;;12.15;3.50;;;7.90;99.90;;;;;;5018545;28;20046;-88
2022/11/29 10:01:05;;;;;;;11.85;3.88;;;8.00;99.90;;;;;;5014755;28;20042;-90
2022/11/29 10:03:51;;;;;;;8.77;3.45;;;8.00;99.90;;;;;;5002869;28;20113;-89
2022/11/29 10:06:22;;;;;;;9.95;3.50;;;8.10;99.90;;;;;;5027809;28;20077;-88
2022/11/29 10:09:13;;;;;;;7.53;3.47;;;8.10;99.90;;;;;;5006803;28;20038;-89
2022/11/29 10:11:51;;;;;;;17.02;3.60;;;8.10;99.90;;;;;;5025223;28;20128;-88
2022/11/29 10:14:24;;;;;;;12.57;3.72;;;8.20;99.90;;;;;;5021662;28;20120;-88
2022/11/29 10:17:11;;;;;;;9.60;3.60;;;8.20;99.90;;;;;;5014817;28;20037;-89
2022/11/29 10:19:46;;;;;;;16.17;4.53;;;8.20;99.90;;;;;;5011092;28;20501;-88
2022/11/29 10:23:02;;;;;;;11.13;4.07;;;8.20;99.90;;;;;;5003402;28;20037;-90
2022/11/29 10:25:42;;;;;;;9.05;3.47;;;8.20;99.90;;;;;;4993084;28;20049;-89
2022/11/29 10:28:16;;;;;;;13.73;4.43;;;8.20;99.90;;;;;;5009642;28;20044;-88
2022/11/29 10:30:43;;;;;;;15.07;3.92;;;8.30;99.90;;;;;;5011076;28;20037;-90
2022/11/29 10:33:33;;;;;;;14.02;3.97;;;8.40;99.90;;;;;;5011373;28;20037;-89
2022/11/29 10:36:04;;;;;;;9.80;3.40;;;8.40;99.90;;;;;;5019899;28;20050;-88
2022/11/29 10:38:29;;;;;;;17.25;3.85;;;8.50;99.90;;;;;;5016574;28;20052;-88
2022/11/29 10:41:13;;;;;;;8.00;2.92;;;8.50;99.90;;;;;;5001916;28;20038;-89
2022/11/29 10:43:39;;;;;;;10.35;3.40;;;8.60;99.90;;;;;;5004995;28;20050;-89
2022/11/29 10:46:14;;;;;;;11.77;3.22;;;8.60;99.90;;;;;;5015318;28;20116;-90
2022/11/29 10:48:40;;;;;;;16.38;3.55;;;8.60;99.90;;;;;;5015010;28;20034;-88
2022/11/29 10:51:14;;;;;;;9.60;2.90;;;8.70;99.90;;;;;;5023476;28;20456;-88
2022/11/29 10:53:41;;;;;;;11.50;3.65;;;8.70;99.90;;;;;;5031928;28;20490;-88
2022/11/29 10:56:21;;;;;;;12.45;3.92;;;8.70;99.90;;;;;;5019598;28;20049;-88
2022/11/29 10:59:07;;;;;;;9.10;3.17;;;8.80;99.90;;;;;;5023797;28;20050;-89
2022/11/29 11:01:40;;;;;;;12.55;3.72;;;8.80;99.90;;;;;;5033088;28;20095;-89
2022/11/29 11:04:09;;;;;;;12.10;3.85;;;8.90;99.90;;;;;;5011052;28;20049;-89
2022/11/29 11:06:55;;;;;;;14.82;3.28;;;8.90;99.90;;;;;;5031515;28;20041;-89
2022/11/29 11:09:34;;;;;;;11.52;3.40;;;8.90;99.90;;;;;;5014289;28;20502;-89
2022/11/29 11:12:04;;;;;;;9.73;3.50;;;8.90;99.90;;;;;;5020626;28;20044;-88
2022/11/29 11:14:33;;;;;;;7.30;3.05;;;9.00;99.90;;;;;;5032897;28;20038;-88
2022/11/29 11:17:31;;;;;;;14.50;3.60;;;9.00;99.90;;;;;;5027168;28;20561;-88
2022/11/29 11:20:08;;;;;;;10.13;2.92;;;9.10;99.90;;;;;;5005513;28;20047;-88
2022/11/29 11:22:59;;;;;;;12.95;3.00;;;9.10;99.90;;;;;;5015195;28;20144;-88
2022/11/29 11:25:39;;;;;;;12.85;3.05;;;9.20;99.90;;;;;;5035105;28;20520;-88
2022/11/29 11:28:20;;;;;;;11.20;3.40;;;9.30;99.90;;;;;;5020111;28;20045;-88
2022/11/29 11:30:54;;;;;;;10.40;3.25;;;9.30;99.90;;;;;;5030758;28;20037;-89
2022/11/29 11:33:25;;;;;;;9.85;2.88;;;9.50;99.90;;;;;;5032384;28;20160;-89
2022/11/29 11:36:22;;;;;;;8.30;2.80;;;9.50;99.90;;;;;;5019178;28;20037;-89
2022/11/29 11:39:17;;;;;;;14.15;3.40;;;9.50;99.90;;;;;;5023943;28;20057;-88
2022/11/29 11:44:42;;;;;;;11.65;3.60;;;9.60;99.90;;;;;;5033362;28;20029;-88
2022/11/29 11:47:15;;;;;;;13.15;4.20;;;9.70;99.90;;;;;;5035123;28;20070;-88
2022/11/29 11:49:59;;;;;;;11.55;3.78;;;9.70;99.90;;;;;;5034946;28;20157;-88
2022/11/29 11:52:43;;;;;;;19.48;4.45;;;9.80;99.90;;;;;;5024757;28;20034;-88
2022/11/29 11:55:39;;;;;;;10.27;3.83;;;9.80;99.90;;;;;;5018229;28;20249;-89
2022/11/29 11:58:11;;;;;;;12.93;4.10;;;9.90;99.90;;;;;;5019727;28;20037;-89
2022/11/29 12:00:45;;;;;;;8.23;3.67;;;9.90;99.90;;;;;;5044656;28;20052;-89
2022/11/29 12:03:44;;;;;;;12.85;4.75;;;10.00;99.90;;;;;;5025031;28;20086;-89
2022/11/29 12:06:33;;;;;;;10.20;3.97;;;10.00;99.90;;;;;;5039622;28;20041;-89
2022/11/29 12:09:04;;;;;;;11.32;4.45;;;10.10;99.90;;;;;;5032988;28;20041;-89
2022/11/29 12:11:40;;;;;;;11.13;4.38;;;10.10;99.90;;;;;;5045557;28;20044;-88
2022/11/29 12:14:06;;;;;;;8.27;4.55;;;10.10;99.90;;;;;;5021462;28;20037;-89
2022/11/29 12:16:39;;;;;;;9.40;5.00;;;10.10;99.90;;;;;;5025956;28;20090;-89
2022/11/29 12:19:19;;;;;;;11.55;5.30;;;10.10;99.90;;;;;;5021350;28;20101;-89
2022/11/29 12:21:58;;;;;;;12.98;4.60;;;10.10;99.90;;;;;;5020623;28;20100;-90
2022/11/29 12:24:36;;;;;;;15.23;4.95;;;10.10;99.90;;;;;;5018123;28;20049;-89
2022/11/29 12:27:04;;;;;;;9.65;5.07;;;10.20;99.90;;;;;;5029708;28;20091;-89
2022/11/29 12:29:36;;;;;;;14.88;5.85;;;10.20;99.90;;;;;;5039548;28;20534;-89
2022/11/29 12:32:41;;;;;;;13.02;5.32;;;10.20;99.90;;;;;;5035138;28;20059;-89
2022/11/29 12:35:25;;;;;;;14.18;4.80;;;10.20;99.90;;;;;;5024775;28;20038;-89
2022/11/29 12:38:06;;;;;;;11.02;5.10;;;10.30;99.90;;;;;;5033620;28;20037;-90
2022/11/29 12:40:56;;;;;;;10.45;4.72;;;10.20;99.90;;;;;;5034711;28;20042;-89
2022/11/29 12:43:55;;;;;;;13.27;4.88;;;10.20;99.90;;;;;;5038687;28;20032;-89
2022/11/29 12:46:28;;;;;;;8.25;4.30;;;10.20;99.90;;;;;;5033688;28;20049;-91
2022/11/29 12:49:21;;;;;;;8.88;4.65;;;10.20;99.90;;;;;;5030835;28;20122;-90
2022/11/29 12:51:55;;;;;;;6.32;3.50;;;10.20;99.90;;;;;;5008405;28;20037;-90
2022/11/29 12:55:09;;;;;;;9.95;4.35;;;10.10;99.90;;;;;;5034871;28;20087;-89
2022/11/29 12:58:06;;;;;;;7.75;3.63;;;10.10;99.90;;;;;;4954988;28;20050;-89
2022/11/29 13:00:59;;;;;;;9.40;4.20;;;10.10;99.90;;;;;;5004106;28;20121;-89
2022/11/29 13:03:28;;;;;;;5.70;3.30;;;10.10;99.90;;;;;;5027780;28;20116;-89
2022/11/29 13:06:15;;;;;;;8.65;3.95;;;10.10;99.90;;;;;;5007621;28;20042;-89
2022/11/29 13:09:03;;;;;;;6.75;3.42;;;10.10;99.90;;;;;;5014922;28;20489;-90
2022/11/29 13:11:28;;;;;;;10.25;4.35;;;10.10;99.90;;;;;;5015183;28;20467;-90
2022/11/29 13:14:18;;;;;;;9.20;4.33;;;10.10;99.90;;;;;;5033649;28;20069;-90
2022/11/29 13:17:12;;;;;;;6.50;3.70;;;10.10;99.90;;;;;;5003687;28;20045;-89
2022/11/29 13:19:43;;;;;;;7.70;3.67;;;10.10;99.90;;;;;;5026086;28;20041;-89
2022/11/29 13:22:31;;;;;;;7.00;4.07;;;10.10;99.90;;;;;;5016560;28;20041;-90
2022/11/29 13:25:13;;;;;;;6.82;3.63;;;10.10;99.90;;;;;;5024539;28;20038;-90
2022/11/29 13:27:45;;;;;;;8.27;3.95;;;10.10;99.90;;;;;;5030534;28;20053;-89
2022/11/29 13:30:15;;;;;;;11.82;4.50;;;10.10;99.90;;;;;;5026903;28;20041;-90
2022/11/29 13:32:49;;;;;;;10.45;4.78;;;10.10;99.90;;;;;;5010912;28;20132;-90
2022/11/29 13:35:20;;;;;;;6.00;3.78;;;10.20;99.90;;;;;;5011289;28;20057;-90
2022/11/29 13:38:15;;;;;;;8.32;4.00;;;10.10;99.90;;;;;;5025578;28;20517;-89
2022/11/29 13:41:03;;;;;;;8.70;3.67;;;10.00;99.90;;;;;;5035426;28;20733;-89
2022/11/29 13:43:43;;;;;;;5.90;3.10;;;10.00;99.90;;;;;;5035328;28;20564;-90
2022/11/29 13:46:35;;;;;;;5.65;3.20;;;10.00;99.90;;;;;;5014970;28;20085;-90
2022/11/29 13:49:03;;;;;;;7.55;3.47;;;10.00;99.90;;;;;;5030303;28;20033;-89
2022/11/29 13:51:36;;;;;;;6.32;3.72;;;10.00;99.90;;;;;;5015318;28;20041;-89
2022/11/29 13:54:28;;;;;;;5.28;3.20;;;9.90;99.90;;;;;;5032347;28;20041;-90
2022/11/29 13:57:06;;;;;;;5.90;2.72;;;9.90;99.90;;;;;;5027766;28;20639;-89
2022/11/29 13:59:36;;;;;;;4.88;2.60;;;9.90;99.90;;;;;;5029434;28;20043;-90